DAL6232 KSEA-PHOG
Flight info
| Callsign | DAL6232 |
|---|---|
| Flight time | N/A |
| Altitude | 34000 |
| Route | HAROB6 HQM SEDAR A331 ZINNO/N0444F360 A331 ZOULU/N0440F370 APACK LNDHY1 |
| Aircraft | A21N/M-SDE2E3FGHIRWXY/LB1 |
Departure
| Time | 2026-05-04 16:55 |
|---|---|
| Airport | Seattle–Tacoma International Airport (KSEA) |
Arrival
| Time | N/A |
|---|---|
| Airport | Kahului International Airport (PHOG) |
| Time | Latitude | Longitude | Altitude | Speed | Heading |
|---|---|---|---|---|---|
| 2026-05-04 16:33 | 47.44234 | -122.30475 | 395 ft | 0 kts | 101° |
| 2026-05-04 16:43 | 47.44234 | -122.30476 | 397 ft | 0 kts | 101° |
| 2026-05-04 16:46 | 47.44235 | -122.30483 | 396 ft | 3 kts | 101° |
| 2026-05-04 16:46 | 47.44242 | -122.30538 | 395 ft | 3 kts | 101° |
| 2026-05-04 16:47 | 47.44246 | -122.30568 | 396 ft | 0 kts | 101° |
| 2026-05-04 16:49 | 47.44272 | -122.30540 | 396 ft | 7 kts | 359° |
| 2026-05-04 16:49 | 47.44406 | -122.30637 | 400 ft | 15 kts | 358° |
| 2026-05-04 16:50 | 47.44656 | -122.30630 | 407 ft | 21 kts | 0° |
| 2026-05-04 16:50 | 47.44990 | -122.30627 | 412 ft | 27 kts | 0° |
| 2026-05-04 16:51 | 47.45383 | -122.30624 | 425 ft | 21 kts | 0° |
| 2026-05-04 16:51 | 47.45544 | -122.30622 | 435 ft | 24 kts | 0° |
| 2026-05-04 16:51 | 47.45919 | -122.30619 | 442 ft | 29 kts | 0° |
| 2026-05-04 16:52 | 47.46147 | -122.30617 | 436 ft | 17 kts | 0° |
| 2026-05-04 16:52 | 47.46272 | -122.30615 | 447 ft | 19 kts | 0° |
| 2026-05-04 16:53 | 47.46354 | -122.30627 | 448 ft | 0 kts | 326° |
| 2026-05-04 16:53 | 47.46376 | -122.30678 | 448 ft | 6 kts | 285° |
| 2026-05-04 16:54 | 47.46362 | -122.30750 | 448 ft | 9 kts | 228° |
| 2026-05-04 16:55 | 47.44129 | -122.30805 | 575 ft | 178 kts | 181° |
| 2026-05-04 16:55 | 47.41689 | -122.30803 | 2128 ft | 181 kts | 182° |
| 2026-05-04 16:56 | 47.38989 | -122.30881 | 3560 ft | 210 kts | 182° |
| 2026-05-04 16:56 | 47.33895 | -122.31534 | 5514 ft | 275 kts | 204° |
| 2026-05-04 16:57 | 47.32339 | -122.33161 | 6459 ft | 278 kts | 231° |
| 2026-05-04 16:57 | 47.31094 | -122.38493 | 8397 ft | 283 kts | 264° |
| 2026-05-04 16:58 | 47.30671 | -122.47459 | 10896 ft | 310 kts | 275° |
| 2026-05-04 16:58 | 47.30802 | -122.50697 | 11517 ft | 324 kts | 275° |
| 2026-05-04 16:59 | 47.31040 | -122.57333 | 13156 ft | 336 kts | 275° |
| 2026-05-04 17:00 | 47.31439 | -122.71401 | 16454 ft | 354 kts | 275° |
| 2026-05-04 17:00 | 47.30272 | -122.82286 | 18735 ft | 373 kts | 250° |
| 2026-05-04 17:01 | 47.28294 | -122.89465 | 20067 ft | 383 kts | 251° |
| 2026-05-04 17:01 | 47.26299 | -122.96835 | 21390 ft | 392 kts | 251° |
| 2026-05-04 17:02 | 47.24263 | -123.04368 | 22682 ft | 401 kts | 252° |
| 2026-05-04 17:02 | 47.22230 | -123.12094 | 23882 ft | 409 kts | 252° |
| 2026-05-04 17:03 | 47.21205 | -123.16014 | 24415 ft | 413 kts | 252° |
| 2026-05-04 17:03 | 47.20168 | -123.19982 | 24929 ft | 417 kts | 252° |
| 2026-05-04 17:03 | 47.18061 | -123.27997 | 25961 ft | 424 kts | 252° |
| 2026-05-04 17:04 | 47.15913 | -123.36139 | 26954 ft | 431 kts | 252° |
| 2026-05-04 17:04 | 47.13717 | -123.44413 | 27925 ft | 438 kts | 252° |
| 2026-05-04 17:05 | 47.11481 | -123.52795 | 28861 ft | 444 kts | 252° |
| 2026-05-04 17:05 | 47.09211 | -123.61310 | 29703 ft | 452 kts | 251° |
| 2026-05-04 17:06 | 47.06898 | -123.69948 | 30444 ft | 458 kts | 251° |
| 2026-05-04 17:06 | 47.05726 | -123.74309 | 30788 ft | 461 kts | 251° |
| 2026-05-04 17:07 | 47.03361 | -123.83085 | 31614 ft | 463 kts | 251° |
| 2026-05-04 17:07 | 47.02574 | -123.85995 | 31897 ft | 463 kts | 251° |
| 2026-05-04 17:07 | 47.00986 | -123.91864 | 32438 ft | 463 kts | 251° |
| 2026-05-04 17:07 | 46.99796 | -123.96251 | 32817 ft | 464 kts | 251° |
| 2026-05-04 17:08 | 46.98599 | -124.00649 | 33202 ft | 465 kts | 251° |
| 2026-05-04 17:08 | 46.96206 | -124.09429 | 33941 ft | 464 kts | 251° |
| 2026-05-04 17:09 | 46.93230 | -124.17811 | 34014 ft | 469 kts | 234° |
| 2026-05-04 17:09 | 46.89166 | -124.25324 | 33995 ft | 471 kts | 233° |
| 2026-05-04 17:10 | 46.79008 | -124.44109 | 33968 ft | 471 kts | 233° |
| 2026-05-04 17:11 | 46.74946 | -124.51616 | 33960 ft | 471 kts | 233° |
| 2026-05-04 17:12 | 46.68842 | -124.62843 | 33965 ft | 471 kts | 233° |
| 2026-05-04 17:13 | 46.58682 | -124.81446 | 33955 ft | 471 kts | 232° |
| 2026-05-04 17:14 | 46.50505 | -124.96318 | 33958 ft | 471 kts | 232° |
| 2026-05-04 17:15 | 46.44359 | -125.07448 | 33959 ft | 471 kts | 232° |
| 2026-05-04 17:16 | 46.36149 | -125.22247 | 33958 ft | 471 kts | 232° |
| 2026-05-04 17:17 | 46.27910 | -125.37016 | 33955 ft | 471 kts | 232° |
| 2026-05-04 17:18 | 46.19646 | -125.51759 | 33963 ft | 473 kts | 231° |
| 2026-05-04 17:19 | 46.11346 | -125.66480 | 33956 ft | 473 kts | 231° |
| 2026-05-04 17:20 | 46.03025 | -125.81166 | 33961 ft | 473 kts | 231° |
| 2026-05-04 17:20 | 45.96777 | -125.92141 | 33965 ft | 473 kts | 231° |
| 2026-05-04 17:21 | 45.88430 | -126.06740 | 33971 ft | 473 kts | 231° |
| 2026-05-04 17:22 | 45.84275 | -126.13969 | 33967 ft | 473 kts | 231° |
| 2026-05-04 17:23 | 45.75893 | -126.28507 | 33976 ft | 473 kts | 230° |
| 2026-05-04 17:24 | 45.69602 | -126.39380 | 33975 ft | 473 kts | 230° |
| 2026-05-04 17:25 | 45.61196 | -126.53832 | 33981 ft | 473 kts | 230° |
| 2026-05-04 17:26 | 45.52750 | -126.68274 | 33979 ft | 474 kts | 230° |
| 2026-05-04 17:27 | 45.43979 | -126.88152 | 33982 ft | 475 kts | 240° |
| 2026-05-04 17:28 | 45.37300 | -127.04342 | 33986 ft | 474 kts | 240° |
| 2026-05-04 17:29 | 45.27235 | -127.28561 | 33984 ft | 474 kts | 239° |
| 2026-05-04 17:31 | 45.19381 | -127.47314 | 33995 ft | 474 kts | 239° |
| 2026-05-04 17:32 | 45.10926 | -127.67359 | 33999 ft | 474 kts | 239° |
| 2026-05-04 17:33 | 45.04145 | -127.83348 | 34000 ft | 474 kts | 239° |
| 2026-05-04 17:34 | 44.97334 | -127.99300 | 34004 ft | 474 kts | 238° |
| 2026-05-04 17:35 | 44.88795 | -128.19182 | 34010 ft | 474 kts | 238° |
| 2026-05-04 17:36 | 44.85376 | -128.27105 | 34010 ft | 473 kts | 238° |
| 2026-05-04 17:36 | 44.81946 | -128.35030 | 34011 ft | 473 kts | 238° |
| 2026-05-04 17:37 | 44.78536 | -128.42886 | 34011 ft | 473 kts | 238° |
| 2026-05-04 17:37 | 44.75077 | -128.50833 | 34013 ft | 473 kts | 237° |
| 2026-05-04 17:38 | 44.71662 | -128.58662 | 34013 ft | 473 kts | 237° |
| 2026-05-04 17:38 | 44.68221 | -128.66534 | 34018 ft | 473 kts | 237° |
| 2026-05-04 17:39 | 44.63042 | -128.78324 | 34015 ft | 472 kts | 237° |
| 2026-05-04 17:39 | 44.59588 | -128.86163 | 34024 ft | 472 kts | 237° |
| 2026-05-04 17:40 | 44.56124 | -128.94003 | 34027 ft | 472 kts | 237° |
| 2026-05-04 17:40 | 44.52654 | -129.01828 | 34030 ft | 472 kts | 237° |
| 2026-05-04 17:41 | 44.49179 | -129.09639 | 34027 ft | 472 kts | 237° |
| 2026-05-04 17:41 | 44.45700 | -129.17445 | 34030 ft | 472 kts | 237° |
| 2026-05-04 17:42 | 44.42218 | -129.25243 | 34035 ft | 472 kts | 237° |
| 2026-05-04 17:42 | 44.38731 | -129.33031 | 34032 ft | 472 kts | 237° |
| 2026-05-04 17:43 | 44.35240 | -129.40801 | 34038 ft | 472 kts | 237° |
| 2026-05-04 17:43 | 44.31770 | -129.48514 | 34038 ft | 472 kts | 236° |
| 2026-05-04 17:44 | 44.28252 | -129.56304 | 34038 ft | 471 kts | 236° |
| 2026-05-04 17:44 | 44.24774 | -129.63987 | 34044 ft | 471 kts | 236° |
| 2026-05-04 17:45 | 44.21267 | -129.71705 | 34047 ft | 471 kts | 236° |
| 2026-05-04 17:45 | 44.17758 | -129.79413 | 34050 ft | 471 kts | 236° |
| 2026-05-04 17:46 | 44.14243 | -129.87112 | 34049 ft | 471 kts | 236° |
| 2026-05-04 17:46 | 44.10722 | -129.94807 | 34050 ft | 471 kts | 236° |
| 2026-05-04 17:47 | 44.07195 | -130.02492 | 34050 ft | 471 kts | 236° |
| 2026-05-04 17:47 | 44.03665 | -130.10156 | 34050 ft | 471 kts | 236° |
| 2026-05-04 17:48 | 44.00128 | -130.17813 | 34049 ft | 471 kts | 236° |
| 2026-05-04 17:48 | 43.96588 | -130.25461 | 34058 ft | 471 kts | 236° |
| 2026-05-04 17:49 | 43.93045 | -130.33095 | 34061 ft | 470 kts | 236° |
| 2026-05-04 17:49 | 43.89499 | -130.40717 | 34060 ft | 470 kts | 236° |
| 2026-05-04 17:50 | 43.85952 | -130.48319 | 34064 ft | 470 kts | 236° |
| 2026-05-04 17:50 | 43.82399 | -130.55914 | 34065 ft | 470 kts | 236° |
| 2026-05-04 17:51 | 43.78841 | -130.63497 | 34065 ft | 470 kts | 236° |
| 2026-05-04 17:51 | 43.75284 | -130.71066 | 34068 ft | 469 kts | 235° |
| 2026-05-04 17:52 | 43.71718 | -130.78628 | 34074 ft | 469 kts | 235° |
| 2026-05-04 17:52 | 43.68154 | -130.86174 | 34074 ft | 469 kts | 235° |
| 2026-05-04 17:53 | 43.64582 | -130.93710 | 34075 ft | 469 kts | 235° |
| 2026-05-04 17:53 | 43.61006 | -131.01237 | 34075 ft | 469 kts | 235° |
| 2026-05-04 17:54 | 43.57428 | -131.08747 | 34079 ft | 468 kts | 235° |
| 2026-05-04 17:54 | 43.53870 | -131.16196 | 34080 ft | 468 kts | 235° |
| 2026-05-04 17:55 | 43.50265 | -131.23724 | 34085 ft | 467 kts | 235° |
| 2026-05-04 17:55 | 43.46684 | -131.31188 | 34090 ft | 467 kts | 235° |
| 2026-05-04 17:56 | 43.43096 | -131.38644 | 34090 ft | 467 kts | 235° |
| 2026-05-04 17:56 | 43.39526 | -131.46043 | 34088 ft | 467 kts | 235° |
| 2026-05-04 17:57 | 43.35934 | -131.53472 | 34104 ft | 467 kts | 235° |
| 2026-05-04 17:57 | 43.32334 | -131.60893 | 34103 ft | 467 kts | 235° |
| 2026-05-04 17:58 | 43.28734 | -131.68303 | 34108 ft | 467 kts | 235° |
| 2026-05-04 17:58 | 43.25129 | -131.75704 | 34099 ft | 466 kts | 234° |
| 2026-05-04 17:59 | 43.21517 | -131.83088 | 34104 ft | 466 kts | 235° |
| 2026-05-04 18:00 | 43.16105 | -131.94140 | 34121 ft | 466 kts | 234° |
| 2026-05-04 18:00 | 43.12489 | -132.01497 | 34107 ft | 466 kts | 234° |
| 2026-05-04 18:01 | 43.08865 | -132.08851 | 34129 ft | 467 kts | 234° |
| 2026-05-04 18:01 | 43.05218 | -132.16232 | 34119 ft | 469 kts | 234° |
| 2026-05-04 18:02 | 42.99739 | -132.27288 | 34119 ft | 468 kts | 234° |
| 2026-05-04 18:02 | 42.96078 | -132.34653 | 34131 ft | 468 kts | 234° |
| 2026-05-04 18:03 | 42.92415 | -132.42005 | 34121 ft | 469 kts | 234° |
| 2026-05-04 18:03 | 42.88747 | -132.49347 | 34125 ft | 469 kts | 234° |
| 2026-05-04 18:04 | 42.85073 | -132.56680 | 34128 ft | 468 kts | 234° |
| 2026-05-04 18:05 | 42.79583 | -132.67607 | 34139 ft | 468 kts | 234° |
| 2026-05-04 18:05 | 42.75906 | -132.74905 | 34127 ft | 467 kts | 234° |
| 2026-05-04 18:06 | 42.70389 | -132.85821 | 34131 ft | 467 kts | 234° |
| 2026-05-04 18:06 | 42.66706 | -132.93085 | 34139 ft | 467 kts | 234° |
| 2026-05-04 18:07 | 42.63017 | -133.00347 | 34129 ft | 467 kts | 234° |
| 2026-05-04 18:07 | 42.59326 | -133.07591 | 34133 ft | 467 kts | 234° |
| 2026-05-04 18:08 | 42.55632 | -133.14828 | 34151 ft | 467 kts | 234° |
| 2026-05-04 18:08 | 42.51931 | -133.22058 | 34149 ft | 466 kts | 234° |
| 2026-05-04 18:09 | 42.44529 | -133.36466 | 34147 ft | 465 kts | 234° |
| 2026-05-04 18:10 | 42.40823 | -133.43651 | 34149 ft | 465 kts | 234° |
| 2026-05-04 18:10 | 42.37119 | -133.50818 | 34149 ft | 464 kts | 234° |
| 2026-05-04 18:11 | 42.33415 | -133.57969 | 34151 ft | 464 kts | 234° |
| 2026-05-04 18:11 | 42.29705 | -133.65111 | 34161 ft | 464 kts | 234° |
| 2026-05-04 18:12 | 42.25996 | -133.72238 | 34160 ft | 463 kts | 234° |
| 2026-05-04 18:12 | 42.22287 | -133.79346 | 34159 ft | 463 kts | 234° |
| 2026-05-04 18:13 | 42.18574 | -133.86447 | 34163 ft | 463 kts | 234° |
| 2026-05-04 18:14 | 42.12997 | -133.97074 | 34166 ft | 462 kts | 234° |
| 2026-05-04 18:14 | 42.09288 | -134.04127 | 34171 ft | 461 kts | 234° |
| 2026-05-04 18:15 | 42.01856 | -134.18204 | 34170 ft | 461 kts | 234° |
| 2026-05-04 18:16 | 41.98144 | -134.25217 | 34179 ft | 460 kts | 234° |
| 2026-05-04 18:16 | 41.94426 | -134.32218 | 34182 ft | 460 kts | 234° |
| 2026-05-04 18:17 | 41.88842 | -134.42702 | 34182 ft | 459 kts | 234° |
| 2026-05-04 18:18 | 41.83289 | -134.53101 | 34183 ft | 459 kts | 234° |
| 2026-05-04 18:18 | 41.80172 | -134.58924 | 34191 ft | 459 kts | 234° |
| 2026-05-04 18:19 | 41.74580 | -134.69331 | 34189 ft | 458 kts | 234° |
| 2026-05-04 18:19 | 41.70858 | -134.76240 | 34195 ft | 457 kts | 234° |
| 2026-05-04 18:20 | 41.67135 | -134.83137 | 34198 ft | 457 kts | 234° |
| 2026-05-04 18:20 | 41.63407 | -134.90026 | 34197 ft | 457 kts | 234° |
| 2026-05-04 18:21 | 41.59675 | -134.96903 | 34201 ft | 457 kts | 234° |
| 2026-05-04 18:21 | 41.55939 | -135.03777 | 34202 ft | 457 kts | 234° |
| 2026-05-04 18:22 | 41.52199 | -135.10639 | 34199 ft | 457 kts | 234° |
| 2026-05-04 18:22 | 41.48465 | -135.17486 | 34202 ft | 456 kts | 234° |
| 2026-05-04 18:23 | 41.44722 | -135.24327 | 34204 ft | 456 kts | 234° |
| 2026-05-04 18:23 | 41.40971 | -135.31151 | 34207 ft | 456 kts | 234° |
| 2026-05-04 18:24 | 41.37225 | -135.37961 | 34206 ft | 455 kts | 235° |
| 2026-05-04 18:24 | 41.33491 | -135.44744 | 34209 ft | 454 kts | 235° |
| 2026-05-04 18:25 | 41.29749 | -135.51518 | 34212 ft | 454 kts | 234° |
| 2026-05-04 18:25 | 41.26011 | -135.58272 | 34212 ft | 453 kts | 235° |
| 2026-05-04 18:26 | 41.22298 | -135.64968 | 34215 ft | 453 kts | 235° |
| 2026-05-04 18:26 | 41.18556 | -135.71695 | 34217 ft | 453 kts | 235° |
| 2026-05-04 18:27 | 41.14816 | -135.78412 | 34215 ft | 453 kts | 235° |
| 2026-05-04 18:27 | 41.11078 | -135.85104 | 34219 ft | 451 kts | 235° |
| 2026-05-04 18:28 | 41.07338 | -135.91786 | 34227 ft | 451 kts | 235° |
| 2026-05-04 18:28 | 41.03598 | -135.98458 | 34225 ft | 451 kts | 235° |
| 2026-05-04 18:29 | 40.99863 | -136.05104 | 34221 ft | 448 kts | 235° |
| 2026-05-04 18:29 | 40.96140 | -136.11718 | 34226 ft | 448 kts | 235° |
| 2026-05-04 18:30 | 40.90547 | -136.21620 | 34229 ft | 448 kts | 235° |
| 2026-05-04 18:31 | 40.86832 | -136.28180 | 34237 ft | 445 kts | 235° |
| 2026-05-04 18:31 | 40.83122 | -136.34724 | 34234 ft | 445 kts | 235° |
| 2026-05-04 18:32 | 40.79406 | -136.41263 | 34234 ft | 445 kts | 235° |
| 2026-05-04 18:32 | 40.75692 | -136.47776 | 34236 ft | 442 kts | 235° |
| 2026-05-04 18:33 | 40.71994 | -136.54259 | 34241 ft | 442 kts | 235° |
| 2026-05-04 18:33 | 40.68289 | -136.60732 | 34245 ft | 442 kts | 235° |
| 2026-05-04 18:34 | 40.64585 | -136.67200 | 34244 ft | 441 kts | 235° |
| 2026-05-04 18:34 | 40.60897 | -136.73619 | 34245 ft | 439 kts | 234° |
| 2026-05-04 18:35 | 40.57208 | -136.80026 | 34245 ft | 439 kts | 234° |
| 2026-05-04 18:35 | 40.53540 | -136.86379 | 34246 ft | 439 kts | 234° |
| 2026-05-04 18:36 | 40.49865 | -136.92734 | 34253 ft | 436 kts | 234° |
| 2026-05-04 18:36 | 40.46195 | -136.99069 | 34256 ft | 436 kts | 234° |
| 2026-05-04 18:37 | 40.42523 | -137.05402 | 34256 ft | 436 kts | 234° |
| 2026-05-04 18:37 | 40.38845 | -137.11721 | 34257 ft | 436 kts | 234° |
| 2026-05-04 18:38 | 40.35160 | -137.18042 | 34259 ft | 436 kts | 234° |
| 2026-05-04 18:38 | 40.31476 | -137.24354 | 34262 ft | 436 kts | 234° |
| 2026-05-04 18:39 | 40.27784 | -137.30659 | 34258 ft | 435 kts | 234° |
| 2026-05-04 18:39 | 40.24099 | -137.36943 | 34264 ft | 435 kts | 234° |
| 2026-05-04 18:40 | 40.20407 | -137.43230 | 34262 ft | 435 kts | 234° |
| 2026-05-04 18:40 | 40.16716 | -137.49500 | 34262 ft | 435 kts | 234° |
| 2026-05-04 18:41 | 40.13034 | -137.55742 | 34273 ft | 433 kts | 234° |
| 2026-05-04 18:41 | 40.09351 | -137.61973 | 34271 ft | 433 kts | 234° |
| 2026-05-04 18:42 | 40.05665 | -137.68198 | 34272 ft | 433 kts | 234° |
| 2026-05-04 18:42 | 40.01972 | -137.74420 | 34273 ft | 433 kts | 234° |
| 2026-05-04 18:43 | 39.98283 | -137.80630 | 34283 ft | 433 kts | 234° |
| 2026-05-04 18:43 | 39.94582 | -137.86834 | 34281 ft | 433 kts | 234° |
| 2026-05-04 18:44 | 39.90888 | -137.93032 | 34283 ft | 433 kts | 234° |
| 2026-05-04 18:44 | 39.87216 | -137.99172 | 34286 ft | 432 kts | 234° |
| 2026-05-04 18:45 | 39.83516 | -138.05342 | 34288 ft | 432 kts | 234° |
| 2026-05-04 18:45 | 39.79796 | -138.11539 | 34287 ft | 431 kts | 234° |
| 2026-05-04 18:46 | 39.76111 | -138.17668 | 34286 ft | 430 kts | 234° |
| 2026-05-04 18:46 | 39.72430 | -138.23779 | 34293 ft | 429 kts | 234° |
| 2026-05-04 18:47 | 39.68741 | -138.29879 | 34295 ft | 429 kts | 234° |
| 2026-05-04 18:47 | 39.65081 | -138.35922 | 34293 ft | 428 kts | 234° |
| 2026-05-04 18:48 | 39.61377 | -138.42023 | 34297 ft | 428 kts | 234° |
| 2026-05-04 18:48 | 39.57724 | -138.48043 | 34301 ft | 428 kts | 234° |
| 2026-05-04 18:49 | 39.54044 | -138.54079 | 34298 ft | 425 kts | 234° |
| 2026-05-04 18:49 | 39.50367 | -138.60077 | 34304 ft | 425 kts | 234° |
| 2026-05-04 18:50 | 39.46697 | -138.66070 | 34306 ft | 425 kts | 234° |
| 2026-05-04 18:50 | 39.43022 | -138.72070 | 34302 ft | 424 kts | 234° |
| 2026-05-04 18:51 | 39.39377 | -138.78011 | 34306 ft | 421 kts | 234° |
| 2026-05-04 18:51 | 39.35731 | -138.83939 | 34310 ft | 421 kts | 234° |
| 2026-05-04 18:52 | 39.32079 | -138.89862 | 34307 ft | 421 kts | 234° |
| 2026-05-04 18:52 | 39.28448 | -138.95739 | 34305 ft | 418 kts | 233° |
| 2026-05-04 18:53 | 39.24824 | -139.01601 | 34315 ft | 418 kts | 233° |
| 2026-05-04 18:53 | 39.21195 | -139.07454 | 34316 ft | 418 kts | 233° |
| 2026-05-04 18:54 | 39.17567 | -139.13297 | 34314 ft | 418 kts | 233° |
| 2026-05-04 18:54 | 39.13937 | -139.19137 | 34316 ft | 418 kts | 233° |
| 2026-05-04 18:55 | 39.10301 | -139.24974 | 34315 ft | 418 kts | 233° |
| 2026-05-04 18:55 | 39.04881 | -139.33656 | 34317 ft | 412 kts | 233° |
| 2026-05-04 18:56 | 39.01286 | -139.39398 | 34318 ft | 412 kts | 232° |
| 2026-05-04 18:56 | 38.97693 | -139.45130 | 34319 ft | 412 kts | 233° |
| 2026-05-04 18:57 | 38.94105 | -139.50848 | 34317 ft | 409 kts | 233° |
| 2026-05-04 18:57 | 38.90529 | -139.56529 | 34321 ft | 408 kts | 232° |
| 2026-05-04 18:58 | 38.86953 | -139.62199 | 34321 ft | 408 kts | 232° |
| 2026-05-04 18:58 | 38.83373 | -139.67861 | 34324 ft | 408 kts | 232° |
| 2026-05-04 18:59 | 38.79827 | -139.73470 | 34324 ft | 407 kts | 232° |
| 2026-05-04 18:59 | 38.76254 | -139.79108 | 34328 ft | 408 kts | 232° |
| 2026-05-04 19:00 | 38.72681 | -139.84741 | 34332 ft | 407 kts | 232° |
| 2026-05-04 19:00 | 38.69103 | -139.90358 | 34330 ft | 406 kts | 232° |
| 2026-05-04 19:01 | 38.65535 | -139.95958 | 34328 ft | 406 kts | 232° |
| 2026-05-04 19:01 | 38.61961 | -140.01561 | 34331 ft | 406 kts | 232° |
| 2026-05-04 19:02 | 38.58392 | -140.07152 | 34333 ft | 406 kts | 231° |
| 2026-05-04 19:02 | 38.54816 | -140.12734 | 34332 ft | 405 kts | 231° |
| 2026-05-04 19:03 | 38.51238 | -140.18306 | 34331 ft | 406 kts | 231° |
| 2026-05-04 19:03 | 38.47661 | -140.23869 | 34333 ft | 405 kts | 231° |
| 2026-05-04 19:04 | 38.44686 | -140.28494 | 34335 ft | 405 kts | 231° |
| 2026-05-04 19:04 | 38.41112 | -140.34040 | 34334 ft | 405 kts | 231° |
| 2026-05-04 19:05 | 38.37532 | -140.39588 | 34334 ft | 405 kts | 231° |
| 2026-05-04 19:05 | 38.33959 | -140.45125 | 34341 ft | 404 kts | 231° |
| 2026-05-04 19:06 | 38.30382 | -140.50645 | 34340 ft | 404 kts | 231° |
| 2026-05-04 19:06 | 38.26801 | -140.56160 | 34340 ft | 404 kts | 231° |
| 2026-05-04 19:07 | 38.23226 | -140.61656 | 34336 ft | 402 kts | 230° |
| 2026-05-04 19:07 | 38.19655 | -140.67127 | 34337 ft | 402 kts | 230° |
| 2026-05-04 19:08 | 38.16087 | -140.72592 | 34339 ft | 402 kts | 230° |
| 2026-05-04 19:08 | 38.12517 | -140.78053 | 34346 ft | 401 kts | 230° |
| 2026-05-04 19:09 | 38.08961 | -140.83492 | 34343 ft | 400 kts | 230° |
| 2026-05-04 19:09 | 38.05400 | -140.88923 | 34342 ft | 400 kts | 230° |
| 2026-05-04 19:10 | 38.01835 | -140.94350 | 34342 ft | 400 kts | 230° |
| 2026-05-04 19:10 | 37.98290 | -140.99733 | 34343 ft | 400 kts | 230° |
| 2026-05-04 19:11 | 37.94722 | -141.05144 | 34345 ft | 400 kts | 230° |
| 2026-05-04 19:11 | 37.91156 | -141.10550 | 34346 ft | 400 kts | 230° |
| 2026-05-04 19:12 | 37.85821 | -141.18617 | 34344 ft | 397 kts | 230° |
| 2026-05-04 19:13 | 37.82271 | -141.23972 | 34347 ft | 397 kts | 230° |
| 2026-05-04 19:13 | 37.78719 | -141.29322 | 34349 ft | 397 kts | 230° |
| 2026-05-04 19:14 | 37.75169 | -141.34661 | 34354 ft | 396 kts | 229° |
| 2026-05-04 19:14 | 37.71636 | -141.39964 | 34349 ft | 394 kts | 229° |
| 2026-05-04 19:15 | 37.68104 | -141.45257 | 34351 ft | 394 kts | 229° |
| 2026-05-04 19:15 | 37.64572 | -141.50537 | 34352 ft | 393 kts | 230° |
| 2026-05-04 19:16 | 37.61046 | -141.55804 | 34351 ft | 393 kts | 230° |
| 2026-05-04 19:16 | 37.57526 | -141.61062 | 34354 ft | 392 kts | 229° |
| 2026-05-04 19:17 | 37.54007 | -141.66299 | 34345 ft | 391 kts | 229° |
| 2026-05-04 19:17 | 37.50490 | -141.71527 | 34351 ft | 391 kts | 229° |
| 2026-05-04 19:18 | 37.46979 | -141.76744 | 34354 ft | 390 kts | 229° |
| 2026-05-04 19:18 | 37.43466 | -141.81951 | 34360 ft | 390 kts | 229° |
| 2026-05-04 19:19 | 37.39961 | -141.87133 | 34349 ft | 388 kts | 229° |
| 2026-05-04 19:19 | 37.36460 | -141.92305 | 34348 ft | 388 kts | 229° |
| 2026-05-04 19:20 | 37.32957 | -141.97469 | 34349 ft | 388 kts | 229° |
| 2026-05-04 19:20 | 37.29456 | -142.02628 | 34342 ft | 388 kts | 229° |
| 2026-05-04 19:21 | 37.25952 | -142.07781 | 34357 ft | 387 kts | 229° |
| 2026-05-04 19:21 | 37.22456 | -142.12914 | 34352 ft | 387 kts | 229° |
| 2026-05-04 19:22 | 37.18954 | -142.18045 | 34352 ft | 387 kts | 229° |
| 2026-05-04 19:22 | 37.15482 | -142.23132 | 34347 ft | 386 kts | 229° |
| 2026-05-04 19:23 | 37.11984 | -142.28239 | 34345 ft | 386 kts | 229° |
| 2026-05-04 19:23 | 37.08468 | -142.33370 | 34350 ft | 385 kts | 228° |
| 2026-05-04 19:24 | 37.04979 | -142.38454 | 34344 ft | 385 kts | 229° |
| 2026-05-04 19:24 | 37.01489 | -142.43526 | 34348 ft | 384 kts | 228° |
| 2026-05-04 19:25 | 36.98001 | -142.48591 | 34348 ft | 384 kts | 228° |
| 2026-05-04 19:25 | 36.94509 | -142.53658 | 34361 ft | 384 kts | 228° |
| 2026-05-04 19:26 | 36.91022 | -142.58706 | 34345 ft | 383 kts | 228° |
| 2026-05-04 19:26 | 36.87536 | -142.63744 | 34348 ft | 383 kts | 228° |
| 2026-05-04 19:27 | 36.84052 | -142.68775 | 34348 ft | 383 kts | 228° |
| 2026-05-04 19:27 | 36.80586 | -142.73773 | 34348 ft | 383 kts | 228° |
| 2026-05-04 19:28 | 36.77099 | -142.78793 | 34363 ft | 382 kts | 228° |
| 2026-05-04 19:28 | 36.73618 | -142.83791 | 34354 ft | 381 kts | 228° |
| 2026-05-04 19:29 | 36.70142 | -142.88776 | 34349 ft | 381 kts | 228° |
| 2026-05-04 19:29 | 36.66665 | -142.93757 | 34343 ft | 381 kts | 228° |
| 2026-05-04 19:30 | 36.63189 | -142.98728 | 34345 ft | 380 kts | 228° |
| 2026-05-04 19:30 | 36.59718 | -143.03688 | 34357 ft | 379 kts | 228° |
| 2026-05-04 19:31 | 36.56252 | -143.08635 | 34350 ft | 379 kts | 228° |
| 2026-05-04 19:31 | 36.52783 | -143.13573 | 34345 ft | 378 kts | 228° |
| 2026-05-04 19:32 | 36.49324 | -143.18492 | 34349 ft | 378 kts | 228° |
| 2026-05-04 19:32 | 36.45863 | -143.23405 | 34349 ft | 378 kts | 228° |
| 2026-05-04 19:33 | 36.42401 | -143.28308 | 34359 ft | 377 kts | 227° |
| 2026-05-04 19:33 | 36.38952 | -143.33192 | 34348 ft | 375 kts | 228° |
| 2026-05-04 19:34 | 36.35510 | -143.38060 | 34351 ft | 375 kts | 228° |
| 2026-05-04 19:34 | 36.32071 | -143.42914 | 34353 ft | 374 kts | 228° |
| 2026-05-04 19:35 | 36.28631 | -143.47766 | 34351 ft | 374 kts | 227° |
| 2026-05-04 19:35 | 36.25194 | -143.52605 | 34350 ft | 374 kts | 228° |
| 2026-05-04 19:36 | 36.21758 | -143.57434 | 34352 ft | 374 kts | 228° |
| 2026-05-04 19:36 | 36.18344 | -143.62225 | 34352 ft | 373 kts | 228° |
| 2026-05-04 19:37 | 36.14906 | -143.67041 | 34352 ft | 373 kts | 228° |
| 2026-05-04 19:37 | 36.11470 | -143.71849 | 34348 ft | 373 kts | 228° |
| 2026-05-04 19:38 | 36.08038 | -143.76644 | 34359 ft | 372 kts | 228° |
| 2026-05-04 19:38 | 36.04609 | -143.81429 | 34351 ft | 372 kts | 228° |
| 2026-05-04 19:39 | 36.01181 | -143.86210 | 34348 ft | 372 kts | 228° |
| 2026-05-04 19:39 | 35.97750 | -143.90981 | 34344 ft | 371 kts | 229° |
| 2026-05-04 19:40 | 35.94323 | -143.95743 | 34347 ft | 371 kts | 228° |
| 2026-05-04 19:40 | 35.90894 | -144.00497 | 34365 ft | 371 kts | 228° |
| 2026-05-04 19:41 | 35.87464 | -144.05252 | 34349 ft | 371 kts | 229° |
| 2026-05-04 19:41 | 35.84033 | -144.09999 | 34344 ft | 371 kts | 229° |
| 2026-05-04 19:42 | 35.80597 | -144.14744 | 34347 ft | 371 kts | 229° |
| 2026-05-04 19:42 | 35.77157 | -144.19493 | 34346 ft | 371 kts | 229° |
| 2026-05-04 19:43 | 35.73716 | -144.24234 | 34350 ft | 371 kts | 229° |
| 2026-05-04 19:43 | 35.70269 | -144.28974 | 34348 ft | 372 kts | 230° |
| 2026-05-04 19:44 | 35.66821 | -144.33706 | 34345 ft | 372 kts | 230° |
| 2026-05-04 19:44 | 35.63368 | -144.38444 | 34347 ft | 372 kts | 230° |
| 2026-05-04 19:45 | 35.59922 | -144.43170 | 34346 ft | 371 kts | 230° |
| 2026-05-04 19:45 | 35.56467 | -144.47896 | 34346 ft | 372 kts | 230° |
| 2026-05-04 19:46 | 35.53033 | -144.52588 | 34355 ft | 372 kts | 231° |
| 2026-05-04 19:46 | 35.49553 | -144.57336 | 34348 ft | 372 kts | 231° |
| 2026-05-04 19:47 | 35.46115 | -144.62023 | 34346 ft | 372 kts | 231° |
| 2026-05-04 19:47 | 35.42653 | -144.66740 | 34344 ft | 372 kts | 230° |
| 2026-05-04 19:48 | 35.39190 | -144.71447 | 34345 ft | 372 kts | 231° |
| 2026-05-04 19:48 | 35.35725 | -144.76154 | 34354 ft | 372 kts | 231° |
| 2026-05-04 19:49 | 35.32255 | -144.80852 | 34346 ft | 372 kts | 231° |
| 2026-05-04 19:49 | 35.28781 | -144.85549 | 34335 ft | 372 kts | 231° |
| 2026-05-04 19:50 | 35.25298 | -144.90247 | 34341 ft | 373 kts | 231° |
| 2026-05-04 19:50 | 35.21817 | -144.94939 | 34339 ft | 372 kts | 231° |
| 2026-05-04 19:51 | 35.18903 | -144.98865 | 34336 ft | 372 kts | 231° |
| 2026-05-04 19:51 | 35.15425 | -145.03544 | 34332 ft | 371 kts | 231° |
| 2026-05-04 19:52 | 35.11960 | -145.08204 | 34330 ft | 370 kts | 231° |
| 2026-05-04 19:52 | 35.08514 | -145.12830 | 34332 ft | 370 kts | 231° |
| 2026-05-04 19:53 | 35.05043 | -145.17481 | 34337 ft | 370 kts | 231° |
| 2026-05-04 19:53 | 35.01572 | -145.22125 | 34316 ft | 370 kts | 232° |
| 2026-05-04 19:54 | 34.98104 | -145.26775 | 34344 ft | 371 kts | 232° |
| 2026-05-04 19:54 | 34.94630 | -145.31415 | 34335 ft | 370 kts | 231° |
| 2026-05-04 19:55 | 34.91162 | -145.36035 | 34331 ft | 370 kts | 231° |
| 2026-05-04 19:55 | 34.87692 | -145.40656 | 34330 ft | 370 kts | 231° |
| 2026-05-04 19:56 | 34.84211 | -145.45276 | 34326 ft | 370 kts | 231° |
| 2026-05-04 19:56 | 34.80734 | -145.49889 | 34330 ft | 370 kts | 231° |
| 2026-05-04 19:57 | 34.77260 | -145.54502 | 34343 ft | 369 kts | 231° |
| 2026-05-04 19:57 | 34.73800 | -145.59085 | 34330 ft | 368 kts | 231° |
| 2026-05-04 19:58 | 34.70330 | -145.63666 | 34316 ft | 369 kts | 231° |
| 2026-05-04 19:58 | 34.66856 | -145.68252 | 34322 ft | 369 kts | 231° |
| 2026-05-04 19:59 | 34.63374 | -145.72838 | 34327 ft | 369 kts | 231° |
| 2026-05-04 19:59 | 34.59895 | -145.77418 | 34327 ft | 369 kts | 231° |
| 2026-05-04 20:00 | 34.56419 | -145.81990 | 34315 ft | 368 kts | 231° |
| 2026-05-04 20:00 | 34.52946 | -145.86550 | 34327 ft | 368 kts | 231° |
| 2026-05-04 20:01 | 34.49468 | -145.91111 | 34324 ft | 368 kts | 231° |
| 2026-05-04 20:01 | 34.45985 | -145.95670 | 34322 ft | 368 kts | 231° |
| 2026-05-04 20:02 | 34.42503 | -146.00225 | 34314 ft | 368 kts | 231° |
| 2026-05-04 20:02 | 34.39016 | -146.04780 | 34319 ft | 369 kts | 231° |
| 2026-05-04 20:03 | 34.35523 | -146.09333 | 34319 ft | 369 kts | 231° |
| 2026-05-04 20:03 | 34.32027 | -146.13886 | 34319 ft | 369 kts | 231° |
| 2026-05-04 20:04 | 34.28552 | -146.18407 | 34320 ft | 369 kts | 231° |
| 2026-05-04 20:04 | 34.25051 | -146.22955 | 34306 ft | 370 kts | 231° |
| 2026-05-04 20:05 | 34.21537 | -146.27515 | 34319 ft | 371 kts | 231° |
| 2026-05-04 20:05 | 34.18024 | -146.32065 | 34328 ft | 370 kts | 231° |
| 2026-05-04 20:06 | 34.14521 | -146.36599 | 34317 ft | 369 kts | 231° |
| 2026-05-04 20:06 | 34.11023 | -146.41119 | 34308 ft | 369 kts | 231° |
| 2026-05-04 20:07 | 34.07517 | -146.45648 | 34317 ft | 369 kts | 231° |
| 2026-05-04 20:07 | 34.04009 | -146.50168 | 34319 ft | 369 kts | 231° |
| 2026-05-04 20:08 | 34.00501 | -146.54684 | 34316 ft | 369 kts | 231° |
| 2026-05-04 20:08 | 33.96992 | -146.59196 | 34323 ft | 368 kts | 231° |
| 2026-05-04 20:09 | 33.93490 | -146.63695 | 34320 ft | 368 kts | 231° |
| 2026-05-04 20:09 | 33.89994 | -146.68187 | 34319 ft | 368 kts | 231° |
| 2026-05-04 20:10 | 33.86493 | -146.72670 | 34319 ft | 368 kts | 231° |
| 2026-05-04 20:10 | 33.82991 | -146.77155 | 34314 ft | 368 kts | 231° |
| 2026-05-04 20:11 | 33.79488 | -146.81631 | 34298 ft | 368 kts | 231° |
| 2026-05-04 20:11 | 33.75973 | -146.86109 | 34327 ft | 367 kts | 231° |
| 2026-05-04 20:12 | 33.72470 | -146.90570 | 34317 ft | 367 kts | 231° |
| 2026-05-04 20:12 | 33.68970 | -146.95021 | 34315 ft | 366 kts | 231° |
| 2026-05-04 20:13 | 33.65496 | -146.99441 | 34316 ft | 366 kts | 231° |
| 2026-05-04 20:13 | 33.61991 | -147.03890 | 34302 ft | 367 kts | 231° |
| 2026-05-04 20:14 | 33.58476 | -147.08346 | 34309 ft | 368 kts | 231° |
| 2026-05-04 20:14 | 33.54959 | -147.12800 | 34311 ft | 368 kts | 231° |
| 2026-05-04 20:15 | 33.51438 | -147.17252 | 34309 ft | 368 kts | 231° |
| 2026-05-04 20:15 | 33.47921 | -147.21698 | 34295 ft | 368 kts | 231° |
| 2026-05-04 20:16 | 33.44372 | -147.26174 | 34304 ft | 368 kts | 231° |
| 2026-05-04 20:16 | 33.40864 | -147.30593 | 34312 ft | 369 kts | 231° |
| 2026-05-04 20:17 | 33.37330 | -147.35039 | 34312 ft | 369 kts | 231° |
| 2026-05-04 20:17 | 33.33799 | -147.39477 | 34305 ft | 368 kts | 231° |
| 2026-05-04 20:18 | 33.30264 | -147.43915 | 34291 ft | 369 kts | 231° |
| 2026-05-04 20:18 | 33.26724 | -147.48352 | 34307 ft | 369 kts | 231° |
| 2026-05-04 20:19 | 33.23183 | -147.52784 | 34304 ft | 369 kts | 231° |
| 2026-05-04 20:19 | 33.19641 | -147.57213 | 34307 ft | 368 kts | 231° |
| 2026-05-04 20:20 | 33.16099 | -147.61637 | 34304 ft | 369 kts | 231° |
| 2026-05-04 20:20 | 33.12557 | -147.66056 | 34299 ft | 369 kts | 231° |
| 2026-05-04 20:21 | 33.09009 | -147.70476 | 34303 ft | 369 kts | 231° |
| 2026-05-04 20:21 | 33.03684 | -147.77101 | 34304 ft | 369 kts | 231° |
| 2026-05-04 20:22 | 33.00130 | -147.81517 | 34304 ft | 369 kts | 231° |
| 2026-05-04 20:22 | 32.96577 | -147.85920 | 34296 ft | 368 kts | 231° |
| 2026-05-04 20:23 | 32.93032 | -147.90313 | 34302 ft | 368 kts | 231° |
| 2026-05-04 20:23 | 32.89478 | -147.94709 | 34306 ft | 369 kts | 231° |
| 2026-05-04 20:24 | 32.85910 | -147.99117 | 34305 ft | 370 kts | 231° |
| 2026-05-04 20:24 | 32.82340 | -148.03527 | 34304 ft | 370 kts | 231° |
| 2026-05-04 20:25 | 32.78765 | -148.07932 | 34297 ft | 370 kts | 231° |
| 2026-05-04 20:25 | 32.75192 | -148.12330 | 34303 ft | 370 kts | 231° |
| 2026-05-04 20:26 | 32.71619 | -148.16725 | 34304 ft | 370 kts | 231° |
| 2026-05-04 20:26 | 32.68040 | -148.21119 | 34305 ft | 371 kts | 231° |
| 2026-05-04 20:27 | 32.64434 | -148.25547 | 34287 ft | 374 kts | 231° |
| 2026-05-04 20:27 | 32.60815 | -148.29979 | 34294 ft | 374 kts | 231° |
| 2026-05-04 20:28 | 32.57190 | -148.34411 | 34300 ft | 374 kts | 231° |
| 2026-05-04 20:28 | 32.53568 | -148.38838 | 34301 ft | 374 kts | 231° |
| 2026-05-04 20:29 | 32.49942 | -148.43266 | 34298 ft | 374 kts | 231° |
| 2026-05-04 20:29 | 32.46314 | -148.47690 | 34284 ft | 374 kts | 231° |
| 2026-05-04 20:30 | 32.42674 | -148.52121 | 34300 ft | 377 kts | 231° |
| 2026-05-04 20:30 | 32.39011 | -148.56575 | 34301 ft | 378 kts | 231° |
| 2026-05-04 20:31 | 32.35370 | -148.60998 | 34294 ft | 378 kts | 231° |
| 2026-05-04 20:31 | 32.31703 | -148.65446 | 34294 ft | 377 kts | 231° |
| 2026-05-04 20:32 | 32.28036 | -148.69888 | 34298 ft | 377 kts | 231° |
| 2026-05-04 20:32 | 32.24370 | -148.74324 | 34295 ft | 378 kts | 231° |